sensor_id;sensor_type;location;lat;lon;timestamp;P1;durP1;ratioP1;P2;durP2;ratioP2
48263;SDS011;34086;51.076;13.722;2023-12-20T00:00:30;7.07;;;5.97;;
48263;SDS011;34086;51.076;13.722;2023-12-20T00:01:31;7.63;;;6.07;;
48263;SDS011;34086;51.076;13.722;2023-12-20T00:02:31;7.70;;;6.00;;
48263;SDS011;34086;51.076;13.722;2023-12-20T00:03:32;8.02;;;5.90;;
48263;SDS011;34086;51.076;13.722;2023-12-20T00:04:32;7.50;;;5.90;;
48263;SDS011;34086;51.076;13.722;2023-12-20T00:05:33;9.07;;;6.10;;
48263;SDS011;34086;51.076;13.722;2023-12-20T00:06:34;7.18;;;5.82;;
48263;SDS011;34086;51.076;13.722;2023-12-20T00:07:35;7.82;;;5.68;;
48263;SDS011;34086;51.076;13.722;2023-12-20T00:08:35;8.13;;;5.93;;
48263;SDS011;34086;51.076;13.722;2023-12-20T00:09:36;6.55;;;5.68;;
48263;SDS011;34086;51.076;13.722;2023-12-20T00:10:36;6.82;;;5.50;;
48263;SDS011;34086;51.076;13.722;2023-12-20T00:11:37;7.70;;;6.05;;
48263;SDS011;34086;51.076;13.722;2023-12-20T00:12:38;6.40;;;5.55;;
48263;SDS011;34086;51.076;13.722;2023-12-20T00:13:38;7.13;;;5.78;;
48263;SDS011;34086;51.076;13.722;2023-12-20T00:14:39;6.88;;;5.47;;
48263;SDS011;34086;51.076;13.722;2023-12-20T00:15:39;6.53;;;5.40;;
48263;SDS011;34086;51.076;13.722;2023-12-20T00:16:40;6.85;;;5.20;;
48263;SDS011;34086;51.076;13.722;2023-12-20T00:17:40;6.68;;;5.22;;
48263;SDS011;34086;51.076;13.722;2023-12-20T00:18:41;6.80;;;5.10;;
48263;SDS011;34086;51.076;13.722;2023-12-20T00:19:41;8.75;;;5.70;;
48263;SDS011;34086;51.076;13.722;2023-12-20T00:20:42;6.53;;;5.22;;
48263;SDS011;34086;51.076;13.722;2023-12-20T00:21:42;7.55;;;5.13;;
48263;SDS011;34086;51.076;13.722;2023-12-20T00:22:43;5.78;;;4.82;;
48263;SDS011;34086;51.076;13.722;2023-12-20T00:23:43;6.25;;;5.00;;
48263;SDS011;34086;51.076;13.722;2023-12-20T00:24:44;5.75;;;4.82;;
48263;SDS011;34086;51.076;13.722;2023-12-20T00:25:44;6.93;;;5.10;;
48263;SDS011;34086;51.076;13.722;2023-12-20T00:26:45;6.38;;;5.00;;
48263;SDS011;34086;51.076;13.722;2023-12-20T00:27:45;5.85;;;4.80;;
48263;SDS011;34086;51.076;13.722;2023-12-20T00:28:46;6.03;;;4.90;;
48263;SDS011;34086;51.076;13.722;2023-12-20T00:29:47;5.65;;;4.80;;
48263;SDS011;34086;51.076;13.722;2023-12-20T00:30:50;7.70;;;5.18;;
48263;SDS011;34086;51.076;13.722;2023-12-20T00:31:50;6.53;;;5.10;;
48263;SDS011;34086;51.076;13.722;2023-12-20T00:32:51;6.20;;;4.80;;
48263;SDS011;34086;51.076;13.722;2023-12-20T00:33:51;4.97;;;4.20;;
48263;SDS011;34086;51.076;13.722;2023-12-20T00:34:52;5.53;;;4.47;;
48263;SDS011;34086;51.076;13.722;2023-12-20T00:35:52;5.53;;;4.60;;
48263;SDS011;34086;51.076;13.722;2023-12-20T00:36:53;5.32;;;4.57;;
48263;SDS011;34086;51.076;13.722;2023-12-20T00:37:54;5.57;;;4.57;;
48263;SDS011;34086;51.076;13.722;2023-12-20T00:38:55;5.28;;;4.47;;
48263;SDS011;34086;51.076;13.722;2023-12-20T00:39:56;5.80;;;4.68;;
48263;SDS011;34086;51.076;13.722;2023-12-20T00:40:56;6.03;;;4.70;;
48263;SDS011;34086;51.076;13.722;2023-12-20T00:41:57;5.43;;;4.20;;
48263;SDS011;34086;51.076;13.722;2023-12-20T00:42:57;5.45;;;4.53;;
48263;SDS011;34086;51.076;13.722;2023-12-20T00:43:58;4.97;;;4.32;;
48263;SDS011;34086;51.076;13.722;2023-12-20T00:44:58;4.90;;;4.20;;
48263;SDS011;34086;51.076;13.722;2023-12-20T00:45:59;5.68;;;4.03;;
48263;SDS011;34086;51.076;13.722;2023-12-20T00:47:00;5.38;;;4.30;;
48263;SDS011;34086;51.076;13.722;2023-12-20T00:48:01;5.20;;;4.25;;
48263;SDS011;34086;51.076;13.722;2023-12-20T00:49:01;5.03;;;4.45;;
48263;SDS011;34086;51.076;13.722;2023-12-20T00:50:02;5.97;;;4.40;;
48263;SDS011;34086;51.076;13.722;2023-12-20T00:51:03;5.07;;;4.05;;
48263;SDS011;34086;51.076;13.722;2023-12-20T00:52:04;4.38;;;3.97;;
48263;SDS011;34086;51.076;13.722;2023-12-20T00:53:05;4.35;;;3.83;;
48263;SDS011;34086;51.076;13.722;2023-12-20T00:54:05;4.55;;;4.00;;
48263;SDS011;34086;51.076;13.722;2023-12-20T00:55:06;6.30;;;4.30;;
48263;SDS011;34086;51.076;13.722;2023-12-20T00:56:07;4.97;;;4.05;;
48263;SDS011;34086;51.076;13.722;2023-12-20T00:57:08;4.88;;;4.07;;
48263;SDS011;34086;51.076;13.722;2023-12-20T00:58:08;5.65;;;3.92;;
48263;SDS011;34086;51.076;13.722;2023-12-20T00:59:09;4.78;;;3.95;;
48263;SDS011;34086;51.076;13.722;2023-12-20T01:00:10;4.80;;;3.80;;
48263;SDS011;34086;51.076;13.722;2023-12-20T01:01:13;4.57;;;4.00;;
48263;SDS011;34086;51.076;13.722;2023-12-20T01:02:13;4.43;;;3.70;;
48263;SDS011;34086;51.076;13.722;2023-12-20T01:03:14;5.07;;;4.05;;
48263;SDS011;34086;51.076;13.722;2023-12-20T01:04:15;4.28;;;3.67;;
48263;SDS011;34086;51.076;13.722;2023-12-20T01:05:15;3.95;;;3.55;;
48263;SDS011;34086;51.076;13.722;2023-12-20T01:06:17;4.65;;;3.85;;
48263;SDS011;34086;51.076;13.722;2023-12-20T01:07:18;5.13;;;3.72;;
48263;SDS011;34086;51.076;13.722;2023-12-20T01:08:19;4.18;;;3.50;;
48263;SDS011;34086;51.076;13.722;2023-12-20T01:09:19;4.45;;;3.63;;
48263;SDS011;34086;51.076;13.722;2023-12-20T01:10:23;4.53;;;3.70;;
48263;SDS011;34086;51.076;13.722;2023-12-20T01:11:23;4.75;;;3.80;;
48263;SDS011;34086;51.076;13.722;2023-12-20T01:12:24;4.10;;;3.58;;
48263;SDS011;34086;51.076;13.722;2023-12-20T01:13:24;3.72;;;3.25;;
48263;SDS011;34086;51.076;13.722;2023-12-20T01:14:25;4.43;;;3.40;;
48263;SDS011;34086;51.076;13.722;2023-12-20T01:15:25;4.20;;;3.50;;
48263;SDS011;34086;51.076;13.722;2023-12-20T01:16:26;4.43;;;3.40;;
48263;SDS011;34086;51.076;13.722;2023-12-20T01:17:27;4.65;;;3.45;;
48263;SDS011;34086;51.076;13.722;2023-12-20T01:18:27;3.80;;;3.40;;
48263;SDS011;34086;51.076;13.722;2023-12-20T01:19:28;3.58;;;3.20;;
48263;SDS011;34086;51.076;13.722;2023-12-20T01:20:29;4.80;;;3.60;;
48263;SDS011;34086;51.076;13.722;2023-12-20T01:21:30;4.38;;;3.53;;
48263;SDS011;34086;51.076;13.722;2023-12-20T01:22:30;5.13;;;3.80;;
48263;SDS011;34086;51.076;13.722;2023-12-20T01:23:31;3.55;;;2.97;;
48263;SDS011;34086;51.076;13.722;2023-12-20T01:24:32;3.90;;;3.13;;
48263;SDS011;34086;51.076;13.722;2023-12-20T01:25:33;3.88;;;3.42;;
48263;SDS011;34086;51.076;13.722;2023-12-20T01:26:33;3.20;;;2.90;;
48263;SDS011;34086;51.076;13.722;2023-12-20T01:27:34;3.35;;;2.92;;
48263;SDS011;34086;51.076;13.722;2023-12-20T01:28:34;4.22;;;3.38;;
48263;SDS011;34086;51.076;13.722;2023-12-20T01:29:35;3.45;;;2.90;;
48263;SDS011;34086;51.076;13.722;2023-12-20T01:30:35;3.65;;;3.00;;
48263;SDS011;34086;51.076;13.722;2023-12-20T01:31:36;3.40;;;3.10;;
48263;SDS011;34086;51.076;13.722;2023-12-20T01:32:37;3.53;;;3.03;;
48263;SDS011;34086;51.076;13.722;2023-12-20T01:33:37;3.53;;;3.00;;
48263;SDS011;34086;51.076;13.722;2023-12-20T01:34:38;3.10;;;2.70;;
48263;SDS011;34086;51.076;13.722;2023-12-20T01:35:38;3.55;;;3.00;;
48263;SDS011;34086;51.076;13.722;2023-12-20T01:36:39;3.60;;;3.00;;
48263;SDS011;34086;51.076;13.722;2023-12-20T01:37:39;3.58;;;3.03;;
48263;SDS011;34086;51.076;13.722;2023-12-20T01:38:40;4.88;;;2.97;;
48263;SDS011;34086;51.076;13.722;2023-12-20T01:39:40;3.55;;;2.63;;
48263;SDS011;34086;51.076;13.722;2023-12-20T01:40:41;3.45;;;2.85;;
48263;SDS011;34086;51.076;13.722;2023-12-20T01:41:42;3.17;;;2.75;;
48263;SDS011;34086;51.076;13.722;2023-12-20T01:42:42;3.33;;;3.03;;
48263;SDS011;34086;51.076;13.722;2023-12-20T01:43:43;3.63;;;2.88;;
48263;SDS011;34086;51.076;13.722;2023-12-20T01:44:43;3.83;;;3.08;;
48263;SDS011;34086;51.076;13.722;2023-12-20T01:45:44;3.38;;;3.08;;
48263;SDS011;34086;51.076;13.722;2023-12-20T01:46:45;3.85;;;2.88;;
48263;SDS011;34086;51.076;13.722;2023-12-20T01:47:46;4.63;;;3.20;;
48263;SDS011;34086;51.076;13.722;2023-12-20T01:48:47;5.03;;;3.00;;
48263;SDS011;34086;51.076;13.722;2023-12-20T01:49:49;3.45;;;2.55;;
48263;SDS011;34086;51.076;13.722;2023-12-20T01:50:50;2.80;;;2.60;;
48263;SDS011;34086;51.076;13.722;2023-12-20T01:51:51;2.75;;;2.55;;
48263;SDS011;34086;51.076;13.722;2023-12-20T01:52:52;2.60;;;2.40;;
48263;SDS011;34086;51.076;13.722;2023-12-20T01:53:56;3.08;;;2.78;;
48263;SDS011;34086;51.076;13.722;2023-12-20T01:54:58;2.63;;;2.42;;
48263;SDS011;34086;51.076;13.722;2023-12-20T01:56:02;2.90;;;2.60;;
48263;SDS011;34086;51.076;13.722;2023-12-20T01:57:04;3.03;;;2.50;;
48263;SDS011;34086;51.076;13.722;2023-12-20T01:58:07;2.85;;;2.63;;
48263;SDS011;34086;51.076;13.722;2023-12-20T01:59:09;3.03;;;2.63;;
48263;SDS011;34086;51.076;13.722;2023-12-20T02:00:09;2.85;;;2.65;;
48263;SDS011;34086;51.076;13.722;2023-12-20T02:01:11;3.13;;;2.60;;
48263;SDS011;34086;51.076;13.722;2023-12-20T02:02:14;2.78;;;2.58;;
48263;SDS011;34086;51.076;13.722;2023-12-20T02:03:15;2.60;;;2.40;;
48263;SDS011;34086;51.076;13.722;2023-12-20T02:04:16;3.80;;;2.70;;
48263;SDS011;34086;51.076;13.722;2023-12-20T02:05:17;2.83;;;2.10;;
48263;SDS011;34086;51.076;13.722;2023-12-20T02:06:18;2.55;;;2.35;;
48263;SDS011;34086;51.076;13.722;2023-12-20T02:07:19;3.15;;;2.40;;
48263;SDS011;34086;51.076;13.722;2023-12-20T02:08:21;2.50;;;2.30;;
48263;SDS011;34086;51.076;13.722;2023-12-20T02:09:22;2.50;;;2.30;;
48263;SDS011;34086;51.076;13.722;2023-12-20T02:10:23;2.60;;;2.30;;
48263;SDS011;34086;51.076;13.722;2023-12-20T02:11:24;2.38;;;2.13;;
48263;SDS011;34086;51.076;13.722;2023-12-20T02:12:25;2.92;;;2.10;;
48263;SDS011;34086;51.076;13.722;2023-12-20T02:13:26;3.03;;;2.17;;
48263;SDS011;34086;51.076;13.722;2023-12-20T02:14:26;2.42;;;2.20;;
48263;SDS011;34086;51.076;13.722;2023-12-20T02:15:27;3.05;;;2.42;;
48263;SDS011;34086;51.076;13.722;2023-12-20T02:16:28;2.30;;;2.10;;
48263;SDS011;34086;51.076;13.722;2023-12-20T02:17:28;2.30;;;2.10;;
48263;SDS011;34086;51.076;13.722;2023-12-20T02:18:29;2.30;;;2.10;;
48263;SDS011;34086;51.076;13.722;2023-12-20T02:19:30;1.98;;;1.88;;
48263;SDS011;34086;51.076;13.722;2023-12-20T02:20:31;3.05;;;2.08;;
48263;SDS011;34086;51.076;13.722;2023-12-20T02:21:32;2.00;;;1.90;;
48263;SDS011;34086;51.076;13.722;2023-12-20T02:22:34;3.28;;;2.20;;
48263;SDS011;34086;51.076;13.722;2023-12-20T02:23:34;2.38;;;2.17;;
48263;SDS011;34086;51.076;13.722;2023-12-20T02:24:35;2.10;;;1.90;;
48263;SDS011;34086;51.076;13.722;2023-12-20T02:25:35;1.80;;;1.70;;
48263;SDS011;34086;51.076;13.722;2023-12-20T02:26:37;2.30;;;1.92;;
48263;SDS011;34086;51.076;13.722;2023-12-20T02:27:38;1.88;;;1.77;;
48263;SDS011;34086;51.076;13.722;2023-12-20T02:28:39;2.08;;;1.90;;
48263;SDS011;34086;51.076;13.722;2023-12-20T02:29:40;2.10;;;1.90;;
48263;SDS011;34086;51.076;13.722;2023-12-20T02:30:41;2.55;;;1.83;;
48263;SDS011;34086;51.076;13.722;2023-12-20T02:31:41;4.45;;;2.00;;
48263;SDS011;34086;51.076;13.722;2023-12-20T02:32:42;2.45;;;1.90;;
48263;SDS011;34086;51.076;13.722;2023-12-20T02:33:42;3.22;;;2.00;;
48263;SDS011;34086;51.076;13.722;2023-12-20T02:34:43;2.08;;;1.90;;
48263;SDS011;34086;51.076;13.722;2023-12-20T02:35:44;1.92;;;1.73;;
48263;SDS011;34086;51.076;13.722;2023-12-20T02:36:44;1.90;;;1.80;;
48263;SDS011;34086;51.076;13.722;2023-12-20T02:37:45;2.03;;;1.80;;
48263;SDS011;34086;51.076;13.722;2023-12-20T02:38:45;1.83;;;1.70;;
48263;SDS011;34086;51.076;13.722;2023-12-20T02:39:46;2.13;;;1.70;;
48263;SDS011;34086;51.076;13.722;2023-12-20T02:40:47;2.08;;;1.80;;
48263;SDS011;34086;51.076;13.722;2023-12-20T02:41:48;1.80;;;1.70;;
48263;SDS011;34086;51.076;13.722;2023-12-20T02:42:48;1.73;;;1.63;;
48263;SDS011;34086;51.076;13.722;2023-12-20T02:43:49;2.00;;;1.80;;
48263;SDS011;34086;51.076;13.722;2023-12-20T02:44:50;2.13;;;1.92;;
48263;SDS011;34086;51.076;13.722;2023-12-20T02:45:50;3.42;;;1.80;;
48263;SDS011;34086;51.076;13.722;2023-12-20T02:46:51;2.22;;;1.80;;
48263;SDS011;34086;51.076;13.722;2023-12-20T02:47:51;2.20;;;2.00;;
48263;SDS011;34086;51.076;13.722;2023-12-20T02:48:52;1.95;;;1.85;;
48263;SDS011;34086;51.076;13.722;2023-12-20T02:49:52;2.05;;;1.88;;
48263;SDS011;34086;51.076;13.722;2023-12-20T02:50:53;1.90;;;1.80;;
48263;SDS011;34086;51.076;13.722;2023-12-20T02:51:54;1.88;;;1.77;;
48263;SDS011;34086;51.076;13.722;2023-12-20T02:52:55;1.88;;;1.77;;
48263;SDS011;34086;51.076;13.722;2023-12-20T02:53:55;1.77;;;1.67;;
48263;SDS011;34086;51.076;13.722;2023-12-20T02:54:56;2.20;;;2.00;;
48263;SDS011;34086;51.076;13.722;2023-12-20T02:55:56;1.90;;;1.70;;
48263;SDS011;34086;51.076;13.722;2023-12-20T02:56:57;1.85;;;1.75;;
48263;SDS011;34086;51.076;13.722;2023-12-20T02:57:58;2.03;;;1.83;;
48263;SDS011;34086;51.076;13.722;2023-12-20T02:58:58;1.80;;;1.70;;
48263;SDS011;34086;51.076;13.722;2023-12-20T02:59:59;1.98;;;1.80;;
48263;SDS011;34086;51.076;13.722;2023-12-20T03:00:59;1.88;;;1.73;;
48263;SDS011;34086;51.076;13.722;2023-12-20T03:02:00;2.33;;;1.88;;
48263;SDS011;34086;51.076;13.722;2023-12-20T03:03:00;2.80;;;1.85;;
48263;SDS011;34086;51.076;13.722;2023-12-20T03:04:01;1.90;;;1.80;;
48263;SDS011;34086;51.076;13.722;2023-12-20T03:05:01;2.10;;;1.90;;
48263;SDS011;34086;51.076;13.722;2023-12-20T03:06:02;1.80;;;1.70;;
48263;SDS011;34086;51.076;13.722;2023-12-20T03:07:03;3.22;;;1.70;;
48263;SDS011;34086;51.076;13.722;2023-12-20T03:08:04;2.05;;;1.85;;
48263;SDS011;34086;51.076;13.722;2023-12-20T03:09:04;1.80;;;1.70;;
48263;SDS011;34086;51.076;13.722;2023-12-20T03:10:05;2.00;;;1.80;;
48263;SDS011;34086;51.076;13.722;2023-12-20T03:11:07;2.10;;;1.80;;
48263;SDS011;34086;51.076;13.722;2023-12-20T03:12:08;1.95;;;1.80;;
48263;SDS011;34086;51.076;13.722;2023-12-20T03:13:08;1.77;;;1.67;;
48263;SDS011;34086;51.076;13.722;2023-12-20T03:14:09;1.75;;;1.63;;
48263;SDS011;34086;51.076;13.722;2023-12-20T03:15:10;2.20;;;1.67;;
48263;SDS011;34086;51.076;13.722;2023-12-20T03:16:11;1.98;;;1.80;;
48263;SDS011;34086;51.076;13.722;2023-12-20T03:17:12;2.35;;;2.00;;
48263;SDS011;34086;51.076;13.722;2023-12-20T03:18:12;3.90;;;2.00;;
48263;SDS011;34086;51.076;13.722;2023-12-20T03:19:13;2.38;;;1.80;;
48263;SDS011;34086;51.076;13.722;2023-12-20T03:20:13;1.80;;;1.70;;
48263;SDS011;34086;51.076;13.722;2023-12-20T03:21:14;1.80;;;1.70;;
48263;SDS011;34086;51.076;13.722;2023-12-20T03:22:14;2.08;;;1.83;;
48263;SDS011;34086;51.076;13.722;2023-12-20T03:23:15;2.22;;;1.75;;
48263;SDS011;34086;51.076;13.722;2023-12-20T03:24:16;2.65;;;1.95;;
48263;SDS011;34086;51.076;13.722;2023-12-20T03:25:16;2.28;;;1.70;;
48263;SDS011;34086;51.076;13.722;2023-12-20T03:26:17;3.08;;;2.03;;
48263;SDS011;34086;51.076;13.722;2023-12-20T03:27:18;2.10;;;1.80;;
48263;SDS011;34086;51.076;13.722;2023-12-20T03:28:18;2.00;;;1.80;;
48263;SDS011;34086;51.076;13.722;2023-12-20T03:29:19;3.85;;;1.83;;
48263;SDS011;34086;51.076;13.722;2023-12-20T03:30:20;2.05;;;1.80;;
48263;SDS011;34086;51.076;13.722;2023-12-20T03:31:20;2.00;;;1.80;;
48263;SDS011;34086;51.076;13.722;2023-12-20T03:32:21;2.63;;;1.95;;
48263;SDS011;34086;51.076;13.722;2023-12-20T03:33:22;2.22;;;1.80;;
48263;SDS011;34086;51.076;13.722;2023-12-20T03:34:22;1.80;;;1.70;;
48263;SDS011;34086;51.076;13.722;2023-12-20T03:35:23;1.70;;;1.60;;
48263;SDS011;34086;51.076;13.722;2023-12-20T03:36:23;2.00;;;1.90;;
48263;SDS011;34086;51.076;13.722;2023-12-20T03:37:24;2.08;;;1.90;;
48263;SDS011;34086;51.076;13.722;2023-12-20T03:38:24;2.00;;;1.80;;
48263;SDS011;34086;51.076;13.722;2023-12-20T03:39:25;2.00;;;1.80;;
48263;SDS011;34086;51.076;13.722;2023-12-20T03:40:26;2.08;;;1.88;;
48263;SDS011;34086;51.076;13.722;2023-12-20T03:41:26;2.63;;;1.90;;
48263;SDS011;34086;51.076;13.722;2023-12-20T03:42:27;2.15;;;1.80;;
48263;SDS011;34086;51.076;13.722;2023-12-20T03:43:27;2.05;;;1.70;;
48263;SDS011;34086;51.076;13.722;2023-12-20T03:44:28;1.92;;;1.70;;
48263;SDS011;34086;51.076;13.722;2023-12-20T03:45:28;2.25;;;1.80;;
48263;SDS011;34086;51.076;13.722;2023-12-20T03:46:29;1.90;;;1.70;;
48263;SDS011;34086;51.076;13.722;2023-12-20T03:47:29;1.90;;;1.70;;
48263;SDS011;34086;51.076;13.722;2023-12-20T03:48:30;2.00;;;1.75;;
48263;SDS011;34086;51.076;13.722;2023-12-20T03:49:31;1.67;;;1.58;;
48263;SDS011;34086;51.076;13.722;2023-12-20T03:50:31;2.25;;;1.73;;
48263;SDS011;34086;51.076;13.722;2023-12-20T03:51:32;1.73;;;1.63;;
48263;SDS011;34086;51.076;13.722;2023-12-20T03:52:32;1.60;;;1.50;;
48263;SDS011;34086;51.076;13.722;2023-12-20T03:53:33;1.85;;;1.70;;
48263;SDS011;34086;51.076;13.722;2023-12-20T03:54:34;1.92;;;1.75;;
48263;SDS011;34086;51.076;13.722;2023-12-20T03:55:35;2.92;;;1.70;;
48263;SDS011;34086;51.076;13.722;2023-12-20T03:56:36;1.83;;;1.65;;
48263;SDS011;34086;51.076;13.722;2023-12-20T03:57:36;3.67;;;1.70;;
48263;SDS011;34086;51.076;13.722;2023-12-20T03:58:37;1.70;;;1.60;;
48263;SDS011;34086;51.076;13.722;2023-12-20T03:59:37;1.90;;;1.60;;
48263;SDS011;34086;51.076;13.722;2023-12-20T04:00:38;2.45;;;1.60;;
48263;SDS011;34086;51.076;13.722;2023-12-20T04:01:39;3.33;;;1.73;;
48263;SDS011;34086;51.076;13.722;2023-12-20T04:02:43;1.80;;;1.60;;
48263;SDS011;34086;51.076;13.722;2023-12-20T04:03:44;1.80;;;1.70;;
48263;SDS011;34086;51.076;13.722;2023-12-20T04:04:44;2.03;;;1.55;;
48263;SDS011;34086;51.076;13.722;2023-12-20T04:05:45;1.85;;;1.58;;
48263;SDS011;34086;51.076;13.722;2023-12-20T04:06:45;2.13;;;1.80;;
48263;SDS011;34086;51.076;13.722;2023-12-20T04:07:46;1.77;;;1.50;;
48263;SDS011;34086;51.076;13.722;2023-12-20T04:08:46;1.90;;;1.70;;
48263;SDS011;34086;51.076;13.722;2023-12-20T04:09:47;2.05;;;1.80;;
48263;SDS011;34086;51.076;13.722;2023-12-20T04:10:48;2.67;;;1.80;;
48263;SDS011;34086;51.076;13.722;2023-12-20T04:11:48;2.15;;;1.65;;
48263;SDS011;34086;51.076;13.722;2023-12-20T04:12:49;2.25;;;1.60;;
48263;SDS011;34086;51.076;13.722;2023-12-20T04:13:49;2.03;;;1.77;;
48263;SDS011;34086;51.076;13.722;2023-12-20T04:14:50;3.42;;;1.63;;
48263;SDS011;34086;51.076;13.722;2023-12-20T04:15:50;3.10;;;1.70;;
48263;SDS011;34086;51.076;13.722;2023-12-20T04:16:52;1.80;;;1.70;;
48263;SDS011;34086;51.076;13.722;2023-12-20T04:17:52;2.25;;;1.45;;
48263;SDS011;34086;51.076;13.722;2023-12-20T04:18:53;2.25;;;1.90;;
48263;SDS011;34086;51.076;13.722;2023-12-20T04:19:53;2.85;;;1.80;;
48263;SDS011;34086;51.076;13.722;2023-12-20T04:20:54;1.60;;;1.50;;
48263;SDS011;34086;51.076;13.722;2023-12-20T04:21:54;1.67;;;1.58;;
48263;SDS011;34086;51.076;13.722;2023-12-20T04:22:55;2.88;;;1.60;;
48263;SDS011;34086;51.076;13.722;2023-12-20T04:23:56;2.30;;;1.70;;
48263;SDS011;34086;51.076;13.722;2023-12-20T04:24:56;1.98;;;1.70;;
48263;SDS011;34086;51.076;13.722;2023-12-20T04:25:57;2.83;;;1.75;;
48263;SDS011;34086;51.076;13.722;2023-12-20T04:26:57;2.00;;;1.80;;
48263;SDS011;34086;51.076;13.722;2023-12-20T04:27:58;1.63;;;1.52;;
48263;SDS011;34086;51.076;13.722;2023-12-20T04:28:58;1.65;;;1.55;;
48263;SDS011;34086;51.076;13.722;2023-12-20T04:29:59;2.25;;;1.50;;
48263;SDS011;34086;51.076;13.722;2023-12-20T04:31:00;3.17;;;1.90;;
48263;SDS011;34086;51.076;13.722;2023-12-20T04:32:00;1.90;;;1.80;;
48263;SDS011;34086;51.076;13.722;2023-12-20T04:33:01;1.90;;;1.80;;
48263;SDS011;34086;51.076;13.722;2023-12-20T04:34:02;2.50;;;1.83;;
48263;SDS011;34086;51.076;13.722;2023-12-20T04:35:02;1.88;;;1.70;;
48263;SDS011;34086;51.076;13.722;2023-12-20T04:36:03;4.05;;;1.80;;
48263;SDS011;34086;51.076;13.722;2023-12-20T04:37:04;1.92;;;1.63;;
48263;SDS011;34086;51.076;13.722;2023-12-20T04:38:05;3.60;;;2.00;;
48263;SDS011;34086;51.076;13.722;2023-12-20T04:39:05;2.17;;;1.92;;
48263;SDS011;34086;51.076;13.722;2023-12-20T04:40:06;2.88;;;1.85;;
48263;SDS011;34086;51.076;13.722;2023-12-20T04:41:08;2.13;;;1.80;;
48263;SDS011;34086;51.076;13.722;2023-12-20T04:42:08;2.38;;;2.10;;
48263;SDS011;34086;51.076;13.722;2023-12-20T04:43:09;3.47;;;1.80;;
48263;SDS011;34086;51.076;13.722;2023-12-20T04:44:10;1.98;;;1.73;;
48263;SDS011;34086;51.076;13.722;2023-12-20T04:45:10;2.10;;;1.90;;
48263;SDS011;34086;51.076;13.722;2023-12-20T04:46:13;2.00;;;1.90;;
48263;SDS011;34086;51.076;13.722;2023-12-20T04:47:13;1.85;;;1.70;;
48263;SDS011;34086;51.076;13.722;2023-12-20T04:48:14;2.45;;;1.63;;
48263;SDS011;34086;51.076;13.722;2023-12-20T04:49:14;3.55;;;2.20;;
48263;SDS011;34086;51.076;13.722;2023-12-20T04:50:15;2.72;;;1.95;;
48263;SDS011;34086;51.076;13.722;2023-12-20T04:51:15;2.65;;;1.80;;
48263;SDS011;34086;51.076;13.722;2023-12-20T04:52:16;2.83;;;1.98;;
48263;SDS011;34086;51.076;13.722;2023-12-20T04:53:16;2.53;;;1.95;;
48263;SDS011;34086;51.076;13.722;2023-12-20T04:54:17;2.35;;;1.90;;
48263;SDS011;34086;51.076;13.722;2023-12-20T04:55:17;2.60;;;1.80;;
48263;SDS011;34086;51.076;13.722;2023-12-20T04:56:18;2.25;;;1.70;;
48263;SDS011;34086;51.076;13.722;2023-12-20T04:57:18;2.95;;;1.90;;
48263;SDS011;34086;51.076;13.722;2023-12-20T04:58:20;1.80;;;1.70;;
48263;SDS011;34086;51.076;13.722;2023-12-20T04:59:20;1.50;;;1.40;;
48263;SDS011;34086;51.076;13.722;2023-12-20T05:00:21;2.22;;;1.50;;
48263;SDS011;34086;51.076;13.722;2023-12-20T05:01:21;2.30;;;1.60;;
48263;SDS011;34086;51.076;13.722;2023-12-20T05:02:22;1.60;;;1.42;;
48263;SDS011;34086;51.076;13.722;2023-12-20T05:03:23;2.35;;;1.70;;
48263;SDS011;34086;51.076;13.722;2023-12-20T05:04:23;1.70;;;1.60;;
48263;SDS011;34086;51.076;13.722;2023-12-20T05:05:24;1.70;;;1.60;;
48263;SDS011;34086;51.076;13.722;2023-12-20T05:06:24;1.70;;;1.40;;
48263;SDS011;34086;51.076;13.722;2023-12-20T05:07:25;2.70;;;1.58;;
48263;SDS011;34086;51.076;13.722;2023-12-20T05:08:26;2.80;;;1.60;;
48263;SDS011;34086;51.076;13.722;2023-12-20T05:09:26;1.80;;;1.58;;
48263;SDS011;34086;51.076;13.722;2023-12-20T05:10:27;1.98;;;1.60;;
48263;SDS011;34086;51.076;13.722;2023-12-20T05:11:27;2.17;;;1.73;;
48263;SDS011;34086;51.076;13.722;2023-12-20T05:12:28;2.45;;;1.92;;
48263;SDS011;34086;51.076;13.722;2023-12-20T05:13:28;3.13;;;1.88;;
48263;SDS011;34086;51.076;13.722;2023-12-20T05:14:29;3.80;;;1.80;;
48263;SDS011;34086;51.076;13.722;2023-12-20T05:15:30;2.22;;;1.85;;
48263;SDS011;34086;51.076;13.722;2023-12-20T05:16:31;3.42;;;1.98;;
48263;SDS011;34086;51.076;13.722;2023-12-20T05:17:31;2.05;;;1.85;;
48263;SDS011;34086;51.076;13.722;2023-12-20T05:18:32;2.97;;;1.88;;
48263;SDS011;34086;51.076;13.722;2023-12-20T05:19:33;2.55;;;2.00;;
48263;SDS011;34086;51.076;13.722;2023-12-20T05:20:35;2.50;;;2.10;;
48263;SDS011;34086;51.076;13.722;2023-12-20T05:21:35;2.75;;;2.10;;
48263;SDS011;34086;51.076;13.722;2023-12-20T05:22:36;3.88;;;2.00;;
48263;SDS011;34086;51.076;13.722;2023-12-20T05:23:36;2.40;;;2.00;;
48263;SDS011;34086;51.076;13.722;2023-12-20T05:24:37;2.67;;;2.03;;
48263;SDS011;34086;51.076;13.722;2023-12-20T05:25:37;2.97;;;2.03;;
48263;SDS011;34086;51.076;13.722;2023-12-20T05:26:38;3.03;;;1.98;;
48263;SDS011;34086;51.076;13.722;2023-12-20T05:27:38;3.08;;;2.00;;
48263;SDS011;34086;51.076;13.722;2023-12-20T05:28:39;2.95;;;2.03;;
48263;SDS011;34086;51.076;13.722;2023-12-20T05:29:40;2.45;;;2.20;;
48263;SDS011;34086;51.076;13.722;2023-12-20T05:30:40;2.30;;;1.90;;
48263;SDS011;34086;51.076;13.722;2023-12-20T05:31:41;3.28;;;2.08;;
48263;SDS011;34086;51.076;13.722;2023-12-20T05:32:41;4.10;;;2.15;;
48263;SDS011;34086;51.076;13.722;2023-12-20T05:33:42;3.10;;;1.88;;
48263;SDS011;34086;51.076;13.722;2023-12-20T05:34:42;3.15;;;2.00;;
48263;SDS011;34086;51.076;13.722;2023-12-20T05:35:43;3.28;;;2.00;;
48263;SDS011;34086;51.076;13.722;2023-12-20T05:36:44;4.63;;;2.20;;
48263;SDS011;34086;51.076;13.722;2023-12-20T05:37:44;2.05;;;1.80;;
48263;SDS011;34086;51.076;13.722;2023-12-20T05:38:45;3.65;;;2.38;;
48263;SDS011;34086;51.076;13.722;2023-12-20T05:39:45;2.33;;;2.05;;
48263;SDS011;34086;51.076;13.722;2023-12-20T05:40:46;2.45;;;1.60;;
48263;SDS011;34086;51.076;13.722;2023-12-20T05:41:46;3.03;;;1.73;;
48263;SDS011;34086;51.076;13.722;2023-12-20T05:42:47;2.53;;;2.10;;
48263;SDS011;34086;51.076;13.722;2023-12-20T05:43:48;2.10;;;1.90;;
48263;SDS011;34086;51.076;13.722;2023-12-20T05:44:48;3.13;;;2.05;;
48263;SDS011;34086;51.076;13.722;2023-12-20T05:45:49;3.15;;;2.20;;
48263;SDS011;34086;51.076;13.722;2023-12-20T05:46:50;3.60;;;2.08;;
48263;SDS011;34086;51.076;13.722;2023-12-20T05:47:50;2.83;;;2.20;;
48263;SDS011;34086;51.076;13.722;2023-12-20T05:48:51;2.20;;;2.00;;
48263;SDS011;34086;51.076;13.722;2023-12-20T05:49:51;1.90;;;1.80;;
48263;SDS011;34086;51.076;13.722;2023-12-20T05:50:52;2.95;;;1.90;;
48263;SDS011;34086;51.076;13.722;2023-12-20T05:51:52;3.47;;;2.08;;
48263;SDS011;34086;51.076;13.722;2023-12-20T05:52:54;3.90;;;2.00;;
48263;SDS011;34086;51.076;13.722;2023-12-20T05:53:55;2.70;;;1.92;;
48263;SDS011;34086;51.076;13.722;2023-12-20T05:54:55;3.38;;;2.03;;
48263;SDS011;34086;51.076;13.722;2023-12-20T05:55:57;2.90;;;2.10;;
48263;SDS011;34086;51.076;13.722;2023-12-20T05:56:58;3.22;;;1.95;;
48263;SDS011;34086;51.076;13.722;2023-12-20T05:57:58;3.92;;;1.90;;
48263;SDS011;34086;51.076;13.722;2023-12-20T05:58:59;4.88;;;2.30;;
48263;SDS011;34086;51.076;13.722;2023-12-20T05:59:59;5.50;;;2.20;;